createdAt,value
2018-07-30T00:00:00.661Z,79.64
2018-07-30T00:01:00.733Z,79.54
2018-07-30T00:02:00.668Z,79.35
2018-07-30T00:03:00.671Z,79.83
2018-07-30T00:04:00.675Z,79.74
2018-07-30T00:05:00.677Z,79.64
2018-07-30T00:06:00.681Z,79.74
2018-07-30T00:07:00.681Z,79.93
2018-07-30T00:08:00.686Z,80.02
2018-07-30T00:09:00.694Z,79.93
2018-07-30T00:10:00.693Z,79.44
2018-07-30T00:11:00.696Z,80.02
2018-07-30T00:12:00.699Z,79.83
2018-07-30T00:13:00.702Z,80.12
2018-07-30T00:14:00.704Z,79.93
2018-07-30T00:15:00.712Z,79.44
2018-07-30T00:16:00.711Z,80.02
2018-07-30T00:17:00.715Z,79.35
2018-07-30T00:18:00.724Z,80.02
2018-07-30T00:19:00.754Z,79.83
2018-07-30T00:20:00.723Z,79.35
2018-07-30T00:21:00.728Z,79.74
2018-07-30T00:22:00.731Z,79.64
2018-07-30T00:23:00.737Z,79.44
2018-07-30T00:24:00.735Z,79.44
2018-07-30T00:25:00.739Z,79.74
2018-07-30T00:26:00.745Z,79.44
2018-07-30T00:27:00.744Z,79.93
2018-07-30T00:28:00.746Z,79.93
2018-07-30T00:29:00.750Z,80.31
2018-07-30T00:30:00.755Z,80.22
2018-07-30T00:31:00.756Z,80.31
2018-07-30T00:32:00.759Z,79.93
2018-07-30T00:33:00.763Z,79.54
2018-07-30T00:34:00.766Z,79.93
2018-07-30T00:35:00.769Z,79.93
2018-07-30T00:36:00.772Z,79.64
2018-07-30T00:37:00.776Z,79.93
2018-07-30T00:38:00.777Z,79.54
2018-07-30T00:39:00.780Z,79.64
2018-07-30T00:40:00.785Z,79.64
2018-07-30T00:41:00.787Z,79.44
2018-07-30T00:42:00.811Z,79.35
2018-07-30T00:43:00.799Z,80.02
2018-07-30T00:44:00.795Z,79.93
2018-07-30T00:45:00.814Z,80.12
2018-07-30T00:46:00.802Z,79.74
2018-07-30T00:47:00.801Z,80.02
2018-07-30T00:48:00.806Z,80.02
2018-07-30T00:49:00.813Z,80.12
2018-07-30T00:50:00.818Z,80.31
2018-07-30T00:51:00.815Z,80.22
2018-07-30T00:52:00.818Z,80.22
2018-07-30T00:53:00.827Z,80.41
2018-07-30T00:54:00.825Z,80.89
2018-07-30T00:55:00.876Z,80.51
2018-07-30T00:56:00.830Z,80.51
2018-07-30T00:57:00.838Z,80.60
2018-07-30T00:58:00.837Z,80.31
2018-07-30T00:59:00.841Z,80.56
2018-07-30T01:00:00.842Z,81.27
2018-07-30T01:01:00.846Z,81.18
2018-07-30T01:02:00.848Z,81.09
2018-07-30T01:03:00.848Z,80.46
2018-07-30T01:04:00.854Z,80.99
2018-07-30T01:05:00.857Z,80.60
2018-07-30T01:06:00.861Z,80.60
2018-07-30T01:07:00.861Z,80.51
2018-07-30T01:08:00.869Z,80.79
2018-07-30T01:09:00.867Z,80.51
2018-07-30T01:10:00.872Z,80.79
2018-07-30T01:11:00.873Z,81.18
2018-07-30T01:12:00.877Z,81.18
2018-07-30T01:13:00.879Z,81.18
2018-07-30T01:14:00.881Z,81.09
2018-07-30T01:15:00.885Z,81.18
2018-07-30T01:16:00.889Z,80.79
2018-07-30T01:17:00.899Z,81.27
2018-07-30T01:18:00.898Z,81.27
2018-07-30T01:19:00.896Z,80.99
2018-07-30T01:20:00.902Z,80.99
2018-07-30T01:21:00.901Z,80.99
2018-07-30T01:22:00.913Z,81.27
2018-07-30T01:23:00.908Z,81.37
2018-07-30T01:24:00.915Z,81.66
2018-07-30T01:25:00.913Z,81.27
2018-07-30T01:26:00.916Z,81.27
2018-07-30T01:27:00.918Z,81.66
2018-07-30T01:28:00.920Z,81.27
2018-07-30T01:29:00.926Z,80.69
2018-07-30T01:30:00.929Z,80.79
2018-07-30T01:31:00.931Z,80.79
2018-07-30T01:32:00.933Z,80.79
2018-07-30T01:33:00.933Z,80.51
2018-07-30T01:34:00.942Z,80.89
2018-07-30T01:35:00.951Z,80.69
2018-07-30T01:36:00.952Z,81.37
2018-07-30T01:37:00.948Z,81.18
2018-07-30T01:38:00.951Z,81.47
2018-07-30T01:39:00.954Z,81.66
2018-07-30T01:40:00.957Z,81.76
2018-07-30T01:41:00.960Z,81.37
2018-07-30T01:42:00.963Z,81.95
2018-07-30T01:43:00.968Z,82.68
2018-07-30T01:44:00.968Z,82.14
2018-07-30T01:45:00.996Z,82.62
2018-07-30T01:46:00.975Z,83.16
2018-07-30T01:47:00.979Z,82.78
2018-07-30T01:48:00.982Z,82.82
2018-07-30T01:49:00.986Z,81.85
2018-07-30T01:50:00.993Z,82.34
2018-07-30T01:51:00.991Z,81.85
2018-07-30T01:52:00.992Z,81.37
2018-07-30T01:53:00.996Z,81.47
2018-07-30T01:54:01.004Z,81.47
2018-07-30T01:55:01.002Z,81.57
2018-07-30T01:56:01.005Z,81.57
2018-07-30T01:57:01.006Z,81.37
2018-07-30T01:58:01.011Z,81.57
2018-07-30T01:59:01.017Z,81.37
2018-07-30T02:00:01.017Z,81.57
2018-07-30T02:01:01.017Z,81.09
2018-07-30T02:02:01.023Z,80.69
2018-07-30T02:03:01.027Z,80.89
2018-07-30T02:04:01.029Z,80.51
2018-07-30T02:05:01.032Z,80.41
2018-07-30T02:06:01.036Z,80.69
2018-07-30T02:07:01.040Z,80.89
2018-07-30T02:08:01.040Z,80.51
2018-07-30T02:09:01.048Z,80.89
2018-07-30T02:10:01.046Z,80.41
2018-07-30T02:11:01.094Z,80.99
2018-07-30T02:12:01.052Z,80.99
2018-07-30T02:13:01.055Z,80.51
2018-07-30T02:14:01.063Z,81.09
2018-07-30T02:15:01.059Z,81.09
2018-07-30T02:16:01.066Z,80.89
2018-07-30T02:17:01.067Z,81.27
2018-07-30T02:18:01.069Z,81.09
2018-07-30T02:19:01.071Z,81.27
2018-07-30T02:20:01.072Z,81.09
2018-07-30T02:21:01.076Z,80.99
2018-07-30T02:22:01.085Z,81.18
2018-07-30T02:23:01.083Z,80.99
2018-07-30T02:24:01.087Z,81.09
2018-07-30T02:25:01.090Z,81.18
2018-07-30T02:26:01.094Z,80.60
2018-07-30T02:27:01.093Z,81.27
2018-07-30T02:28:01.101Z,81.09
2018-07-30T02:29:01.099Z,81.18
2018-07-30T02:30:01.102Z,81.09
2018-07-30T02:31:01.105Z,81.27
2018-07-30T02:32:01.109Z,81.37
2018-07-30T02:33:01.112Z,81.09
2018-07-30T02:34:01.113Z,81.47
2018-07-30T02:35:01.115Z,81.57
2018-07-30T02:36:01.122Z,81.18
2018-07-30T02:37:01.125Z,81.27
2018-07-30T02:38:01.124Z,81.66
2018-07-30T02:39:01.125Z,81.47
2018-07-30T02:40:01.130Z,81.66
2018-07-30T02:41:01.133Z,81.47
2018-07-30T02:42:01.138Z,81.66
2018-07-30T02:43:01.140Z,81.66
2018-07-30T02:44:01.144Z,81.47
2018-07-30T02:45:01.151Z,81.57
2018-07-30T02:46:01.149Z,81.47
2018-07-30T02:47:01.165Z,81.27
2018-07-30T02:48:01.178Z,81.47
2018-07-30T02:49:01.158Z,81.57
2018-07-30T02:50:01.159Z,81.66
2018-07-30T02:51:01.161Z,81.72
2018-07-30T02:52:01.165Z,81.57
2018-07-30T02:53:01.169Z,81.37
2018-07-30T02:54:01.168Z,81.37
2018-07-30T02:55:01.174Z,81.57
2018-07-30T02:56:01.176Z,81.95
2018-07-30T02:57:01.181Z,81.47
2018-07-30T02:58:01.184Z,81.66
2018-07-30T02:59:01.185Z,81.47
2018-07-30T03:00:01.186Z,81.85
2018-07-30T03:01:01.191Z,81.85
2018-07-30T03:02:01.190Z,81.85
2018-07-30T03:03:01.199Z,81.66
2018-07-30T03:04:01.199Z,81.57
2018-07-30T03:05:01.203Z,81.47
2018-07-30T03:06:01.203Z,81.47
2018-07-30T03:07:01.210Z,81.47
2018-07-30T03:08:01.211Z,81.66
2018-07-30T03:09:01.213Z,81.76
2018-07-30T03:10:01.217Z,81.66
2018-07-30T03:11:01.220Z,81.66
2018-07-30T03:12:01.224Z,81.18
2018-07-30T03:13:01.226Z,81.76
2018-07-30T03:14:01.227Z,81.66
2018-07-30T03:15:01.313Z,81.18
2018-07-30T03:16:01.236Z,81.18
2018-07-30T03:17:01.241Z,81.18
2018-07-30T03:18:01.239Z,80.51
2018-07-30T03:19:01.241Z,80.69
2018-07-30T03:20:01.244Z,80.41
2018-07-30T03:21:01.249Z,80.89
2018-07-30T03:22:01.250Z,80.45
2018-07-30T03:23:01.252Z,80.12
2018-07-30T03:24:01.256Z,80.22
2018-07-30T03:25:01.258Z,80.41
2018-07-30T03:26:01.258Z,80.02
2018-07-30T03:27:01.266Z,80.06
2018-07-30T03:28:01.271Z,80.06
2018-07-30T03:29:01.274Z,79.93
2018-07-30T03:30:01.274Z,79.77
2018-07-30T03:31:01.289Z,80.06
2018-07-30T03:32:01.279Z,80.26
2018-07-30T03:33:01.284Z,80.35
2018-07-30T03:34:01.285Z,80.16
2018-07-30T03:35:01.295Z,79.77
2018-07-30T03:36:01.292Z,79.68
2018-07-30T03:37:01.293Z,79.39
2018-07-30T03:38:01.300Z,79.77
2018-07-30T03:39:01.300Z,79.49
2018-07-30T03:40:01.298Z,79.39
2018-07-30T03:41:01.305Z,79.58
2018-07-30T03:42:01.318Z,79.49
2018-07-30T03:43:01.316Z,78.91
2018-07-30T03:44:01.315Z,79.58
2018-07-30T03:45:01.320Z,79.58
2018-07-30T03:46:01.362Z,79.49
2018-07-30T03:47:01.359Z,79.49
2018-07-30T03:48:01.332Z,78.81
2018-07-30T03:49:01.330Z,79.39
2018-07-30T03:50:01.333Z,78.71
2018-07-30T03:51:01.335Z,78.52
2018-07-30T03:52:01.339Z,79.10
2018-07-30T03:53:01.343Z,78.46
2018-07-30T03:54:01.346Z,78.36
2018-07-30T03:55:01.347Z,77.98
2018-07-30T03:56:01.351Z,78.08
2018-07-30T03:57:01.358Z,77.30
2018-07-30T03:58:01.405Z,77.88
2018-07-30T03:59:01.360Z,77.59
2018-07-30T04:00:01.393Z,77.69
2018-07-30T04:01:01.365Z,78.08
2018-07-30T04:02:01.371Z,77.11
2018-07-30T04:03:01.372Z,77.40
2018-07-30T04:04:01.382Z,78.08
2018-07-30T04:05:01.380Z,77.98
2018-07-30T04:06:01.390Z,77.78
2018-07-30T04:07:01.386Z,78.17
2018-07-30T04:08:01.465Z,77.21
2018-07-30T04:09:01.392Z,77.40
2018-07-30T04:10:01.395Z,77.40
2018-07-30T04:11:01.402Z,77.40
2018-07-30T04:12:01.405Z,77.11
2018-07-30T04:13:01.407Z,77.21
2018-07-30T04:14:01.408Z,76.34
2018-07-30T04:15:01.412Z,77.69
2018-07-30T04:16:01.415Z,77.98
2018-07-30T04:17:01.419Z,77.11
2018-07-30T04:18:01.421Z,77.59
2018-07-30T04:19:01.426Z,77.78
2018-07-30T04:20:01.425Z,77.69
2018-07-30T04:21:01.429Z,77.40
2018-07-30T04:22:01.487Z,77.50
2018-07-30T04:23:01.439Z,77.30
2018-07-30T04:24:01.444Z,77.30
2018-07-30T04:25:01.451Z,77.21
2018-07-30T04:26:01.449Z,77.34
2018-07-30T04:27:01.449Z,77.11
2018-07-30T04:28:01.455Z,77.21
2018-07-30T04:29:01.460Z,77.50
2018-07-30T04:30:01.461Z,76.53
2018-07-30T04:31:01.463Z,77.15
2018-07-30T04:32:01.475Z,77.11
2018-07-30T04:33:01.473Z,77.59
2018-07-30T04:34:01.471Z,77.34
2018-07-30T04:35:01.476Z,78.11
2018-07-30T04:36:01.480Z,77.34
2018-07-30T04:37:01.485Z,77.92
2018-07-30T04:38:01.490Z,77.59
2018-07-30T04:39:01.493Z,77.53
2018-07-30T04:40:01.500Z,77.53
2018-07-30T04:41:01.504Z,78.11
2018-07-30T04:42:01.502Z,78.50
2018-07-30T04:43:01.518Z,77.25
2018-07-30T04:44:01.509Z,78.02
2018-07-30T04:45:01.510Z,78.02
2018-07-30T04:46:01.516Z,78.11
2018-07-30T04:47:01.521Z,77.88
2018-07-30T04:48:01.550Z,78.69
2018-07-30T04:49:01.526Z,78.99
2018-07-30T04:50:01.531Z,77.92
2018-07-30T04:51:01.533Z,78.50
2018-07-30T04:52:01.535Z,78.11
2018-07-30T04:53:01.541Z,78.11
2018-07-30T04:54:01.546Z,77.92
2018-07-30T04:55:01.547Z,77.92
2018-07-30T04:56:01.553Z,78.11
2018-07-30T04:57:01.572Z,77.15
2018-07-30T04:58:01.570Z,77.92
2018-07-30T04:59:01.563Z,78.99
2018-07-30T05:00:01.564Z,78.11
2018-07-30T05:01:01.566Z,78.31
2018-07-30T05:02:01.568Z,77.53
2018-07-30T05:03:01.575Z,78.15
2018-07-30T05:04:01.578Z,78.11
2018-07-30T05:05:01.579Z,77.48
2018-07-30T05:06:01.589Z,77.67
2018-07-30T05:07:01.590Z,77.48
2018-07-30T05:08:01.595Z,78.15
2018-07-30T05:09:01.609Z,77.67
2018-07-30T05:10:01.614Z,77.86
2018-07-30T05:11:01.606Z,77.67
2018-07-30T05:12:01.608Z,77.48
2018-07-30T05:13:01.615Z,78.25
2018-07-30T05:14:01.616Z,77.48
2018-07-30T05:15:01.632Z,77.38
2018-07-30T05:16:01.627Z,76.90
2018-07-30T05:17:01.626Z,76.61
2018-07-30T05:18:01.630Z,76.26
2018-07-30T05:19:01.632Z,75.27
2018-07-30T05:20:01.639Z,73.57
2018-07-30T05:21:01.644Z,72.24
2018-07-30T05:22:01.644Z,71.66
2018-07-30T05:23:01.655Z,71.22
2018-07-30T05:24:01.651Z,69.12
2018-07-30T05:25:01.657Z,67.89
2018-07-30T05:26:01.662Z,67.69
2018-07-30T05:27:01.662Z,69.37
2018-07-30T05:28:01.671Z,70.95
2018-07-30T05:29:01.673Z,72.85
2018-07-30T05:30:01.700Z,73.82
2018-07-30T05:31:01.681Z,74.27
2018-07-30T05:32:01.686Z,75.07
2018-07-30T05:33:01.686Z,75.23
2018-07-30T05:34:01.693Z,75.52
2018-07-30T05:35:01.696Z,76.20
2018-07-30T05:36:01.704Z,76.93
2018-07-30T05:37:01.706Z,75.97
2018-07-30T05:38:01.715Z,76.45
2018-07-30T05:39:01.718Z,76.84
2018-07-30T05:40:01.719Z,76.74
2018-07-30T05:41:01.724Z,76.35
2018-07-30T05:42:01.729Z,77.51
2018-07-30T05:43:01.731Z,77.71
2018-07-30T05:44:01.737Z,77.51
2018-07-30T05:45:01.745Z,77.32
2018-07-30T05:46:01.748Z,77.61
2018-07-30T05:47:01.747Z,77.61
2018-07-30T05:48:01.753Z,77.61
2018-07-30T05:49:01.759Z,78.00
2018-07-30T05:50:01.791Z,78.09
2018-07-30T05:51:01.819Z,77.61
2018-07-30T05:52:01.772Z,77.80
2018-07-30T05:53:01.774Z,78.29
2018-07-30T05:54:01.779Z,78.00
2018-07-30T05:55:01.782Z,77.80
2018-07-30T05:56:01.786Z,78.77
2018-07-30T05:57:01.805Z,77.80
2018-07-30T05:58:01.790Z,77.26
2018-07-30T05:59:01.796Z,77.55
2018-07-30T06:00:01.802Z,77.40
2018-07-30T06:01:01.809Z,77.07
2018-07-30T06:02:01.851Z,77.45
2018-07-30T06:03:01.822Z,77.45
2018-07-30T06:04:01.823Z,77.84
2018-07-30T06:05:01.824Z,76.87
2018-07-30T06:06:01.828Z,77.45
2018-07-30T06:07:01.832Z,77.45
2018-07-30T06:08:01.836Z,77.59
2018-07-30T06:09:01.841Z,77.36
2018-07-30T06:10:01.842Z,77.84
2018-07-30T06:11:01.848Z,77.69
2018-07-30T06:12:01.854Z,77.40
2018-07-30T06:13:01.859Z,76.49
2018-07-30T06:14:03.935Z,76.97
2018-07-30T06:15:01.876Z,77.45
2018-07-30T06:16:01.876Z,77.84
2018-07-30T06:17:01.877Z,77.69
2018-07-30T06:18:01.882Z,77.30
2018-07-30T06:19:01.916Z,77.07
2018-07-30T06:20:01.890Z,77.65
2018-07-30T06:21:01.979Z,77.36
2018-07-30T06:22:01.967Z,77.75
2018-07-30T06:23:01.954Z,78.23
2018-07-30T06:24:01.905Z,78.08
2018-07-30T06:25:01.972Z,77.40
2018-07-30T06:26:01.922Z,77.40
2018-07-30T06:27:01.943Z,77.59
2018-07-30T06:28:01.954Z,77.40
2018-07-30T06:29:02.028Z,76.82
2018-07-30T06:30:01.974Z,77.30
2018-07-30T06:31:02.003Z,76.72
2018-07-30T06:32:01.957Z,76.91
2018-07-30T06:33:01.946Z,77.50
2018-07-30T06:34:01.956Z,77.40
2018-07-30T06:35:01.958Z,77.40
2018-07-30T06:36:01.964Z,77.69
2018-07-30T06:37:01.966Z,77.59
2018-07-30T06:38:01.973Z,77.40
2018-07-30T06:39:01.972Z,78.03
2018-07-30T06:40:01.977Z,77.94
2018-07-30T06:41:01.984Z,78.42
2018-07-30T06:42:01.987Z,78.61
2018-07-30T06:43:01.991Z,79.24
2018-07-30T06:44:01.994Z,78.52
2018-07-30T06:45:01.999Z,78.71
2018-07-30T06:46:02.006Z,78.91
2018-07-30T06:47:02.006Z,79.00
2018-07-30T06:48:02.143Z,79.10
2018-07-30T06:49:02.016Z,78.91
2018-07-30T06:50:02.022Z,78.91
2018-07-30T06:51:02.025Z,78.91
2018-07-30T06:52:02.035Z,79.39
2018-07-30T06:53:02.035Z,78.71
2018-07-30T06:54:02.037Z,79.20
2018-07-30T06:55:02.038Z,79.10
2018-07-30T06:56:02.045Z,78.61
2018-07-30T06:57:02.051Z,78.33
2018-07-30T06:58:02.054Z,78.71
2018-07-30T06:59:02.061Z,78.61
2018-07-30T07:00:02.062Z,78.52
2018-07-30T07:01:02.113Z,78.81
2018-07-30T07:02:02.116Z,78.42
2018-07-30T07:03:02.075Z,77.94
2018-07-30T07:04:02.080Z,78.03
2018-07-30T07:05:02.084Z,78.23
2018-07-30T07:06:02.091Z,78.23
2018-07-30T07:07:02.094Z,78.08
2018-07-30T07:08:02.097Z,78.75
2018-07-30T07:09:02.101Z,78.08
2018-07-30T07:10:02.104Z,77.69
2018-07-30T07:11:02.136Z,77.88
2018-07-30T07:12:02.116Z,77.78
2018-07-30T07:13:02.127Z,77.78
2018-07-30T07:14:02.127Z,77.88
2018-07-30T07:15:02.128Z,77.40
2018-07-30T07:16:02.132Z,77.11
2018-07-30T07:17:02.223Z,77.78
2018-07-30T07:18:02.144Z,77.50
2018-07-30T07:19:02.153Z,77.20
2018-07-30T07:20:02.149Z,77.20
2018-07-30T07:21:02.155Z,77.59
2018-07-30T07:22:02.230Z,77.88
2018-07-30T07:23:02.173Z,76.82
2018-07-30T07:24:02.167Z,76.86
2018-07-30T07:25:02.171Z,76.53
2018-07-30T07:26:02.179Z,77.05
2018-07-30T07:27:02.241Z,76.46
2018-07-30T07:28:02.208Z,75.98
2018-07-30T07:29:02.199Z,76.08
2018-07-30T07:30:02.199Z,75.70
2018-07-30T07:31:02.199Z,76.18
2018-07-30T07:32:02.202Z,76.95
2018-07-30T07:33:02.212Z,75.79
2018-07-30T07:34:02.218Z,75.63
2018-07-30T07:35:02.293Z,75.63
2018-07-30T07:36:02.225Z,75.05
2018-07-30T07:37:02.231Z,74.18
2018-07-30T07:38:02.231Z,74.22
2018-07-30T07:39:02.237Z,73.54
2018-07-30T07:40:02.243Z,72.55
2018-07-30T07:41:02.296Z,69.86
2018-07-30T07:42:02.251Z,69.76
2018-07-30T07:43:02.267Z,70.83
2018-07-30T07:44:02.262Z,68.28
2018-07-30T07:45:02.345Z,67.11
2018-07-30T07:46:02.274Z,66.02
2018-07-30T07:47:02.280Z,62.63
2018-07-30T07:48:02.283Z,61.24
2018-07-30T07:49:02.298Z,61.15
2018-07-30T07:50:02.339Z,61.54
2018-07-30T07:51:02.498Z,60.82
2018-07-30T07:52:02.312Z,58.98
2018-07-30T07:53:02.317Z,55.66
2018-07-30T07:54:02.325Z,57.65
2018-07-30T07:55:02.331Z,58.80
2018-07-30T07:56:02.335Z,56.67
2018-07-30T07:57:02.343Z,55.06
2018-07-30T07:58:02.362Z,54.28
2018-07-30T07:59:02.359Z,52.56
2018-07-30T08:00:02.366Z,53.54
2018-07-30T08:01:02.396Z,56.38
2018-07-30T08:02:02.383Z,56.77
2018-07-30T08:03:02.392Z,56.36
2018-07-30T08:04:02.403Z,57.17
2018-07-30T08:05:02.410Z,55.22
2018-07-30T08:06:02.418Z,52.37
2018-07-30T08:07:02.427Z,50.98
2018-07-30T08:08:02.438Z,49.14
2018-07-30T08:09:02.454Z,50.93
2018-07-30T08:10:02.458Z,50.68
2018-07-30T08:11:02.549Z,49.04
2018-07-30T08:12:02.478Z,48.08
2018-07-30T08:13:02.481Z,47.86
2018-07-30T08:14:02.490Z,45.65
2018-07-30T08:15:02.504Z,47.47
2018-07-30T08:16:02.534Z,49.63
2018-07-30T08:17:02.519Z,51.78
2018-07-30T08:18:02.536Z,50.29
2018-07-30T08:19:02.540Z,51.27
2018-07-30T08:20:02.549Z,49.82
2018-07-30T08:21:02.599Z,50.71
2018-07-30T08:22:02.571Z,52.66
2018-07-30T08:23:02.579Z,53.47
2018-07-30T08:24:02.912Z,52.03
2018-07-30T08:25:02.655Z,51.22
2018-07-30T08:26:02.643Z,49.75
2018-07-30T08:27:02.849Z,49.95
2018-07-30T08:28:02.981Z,49.92
2018-07-30T08:29:02.778Z,51.12
2018-07-30T08:30:02.661Z,52.69
2018-07-30T08:31:02.667Z,52.22
2018-07-30T08:32:02.682Z,51.51
2018-07-30T08:33:02.719Z,51.56
2018-07-30T08:34:02.699Z,52.12
2018-07-30T08:35:02.708Z,52.34
2018-07-30T08:36:02.756Z,52.66
2018-07-30T08:37:02.760Z,51.68
2018-07-30T08:38:02.748Z,51.56
2018-07-30T08:39:02.751Z,49.95
2018-07-30T08:40:02.762Z,48.33
2018-07-30T08:41:02.776Z,48.11
2018-07-30T08:42:02.789Z,45.55
2018-07-30T08:43:02.799Z,45.28
2018-07-30T08:44:02.808Z,46.23
2018-07-30T08:45:02.860Z,47.94
2018-07-30T08:46:02.833Z,47.72
2018-07-30T08:47:02.843Z,46.23
2018-07-30T08:48:02.854Z,47.52
2018-07-30T08:49:02.870Z,46.39
2018-07-30T08:50:02.895Z,45.36
2018-07-30T08:51:03.049Z,44.27
2018-07-30T08:52:02.907Z,43.26
2018-07-30T08:53:02.912Z,42.40
2018-07-30T08:54:02.924Z,41.06
2018-07-30T08:55:02.958Z,40.08
2018-07-30T08:56:02.975Z,42.77
2018-07-30T08:57:03.116Z,42.30
2018-07-30T08:58:02.998Z,42.35
2018-07-30T08:59:03.094Z,42.59
2018-07-30T09:00:03.022Z,41.29
2018-07-30T09:01:03.025Z,42.85
2018-07-30T09:02:03.025Z,41.69
2018-07-30T09:03:03.026Z,40.94
2018-07-30T09:04:03.070Z,40.05
2018-07-30T09:05:03.055Z,41.04
2018-07-30T09:06:03.065Z,40.39
2018-07-30T09:07:03.121Z,40.72
2018-07-30T09:08:03.108Z,42.68
2018-07-30T09:09:03.103Z,44.16
2018-07-30T09:10:03.134Z,43.08
2018-07-30T09:11:03.123Z,45.25
2018-07-30T09:12:03.157Z,47.20
2018-07-30T09:13:03.140Z,47.20
2018-07-30T09:14:03.155Z,47.45
2018-07-30T09:15:03.169Z,48.63
2018-07-30T09:16:03.178Z,48.75
2018-07-30T09:17:03.193Z,51.12
2018-07-30T09:18:03.201Z,53.24
2018-07-30T09:19:03.207Z,54.21
2018-07-30T09:20:03.214Z,55.38
2018-07-30T09:21:03.222Z,55.02
2018-07-30T09:22:03.235Z,54.80
2018-07-30T09:23:03.293Z,53.63
2018-07-30T09:24:03.246Z,53.83
2018-07-30T09:25:03.259Z,55.09
2018-07-30T09:26:03.268Z,54.99
2018-07-30T09:27:03.278Z,53.53
2018-07-30T09:28:03.282Z,54.99
2018-07-30T09:29:03.298Z,54.28
2018-07-30T09:30:03.303Z,54.68
2018-07-30T09:31:03.311Z,55.23
2018-07-30T09:32:03.360Z,54.94
2018-07-30T09:33:03.553Z,55.11
2018-07-30T09:34:03.333Z,55.79
2018-07-30T09:35:03.345Z,56.01
2018-07-30T09:36:03.347Z,54.85
2018-07-30T09:37:03.645Z,55.23
2018-07-30T09:39:03.481Z,53.87
2018-07-30T09:40:03.959Z,54.26
2018-07-30T09:41:04.787Z,53.28
2018-07-30T09:42:03.565Z,53.38
2018-07-30T09:43:03.507Z,51.82
2018-07-30T09:44:03.779Z,52.80
2018-07-30T09:45:03.641Z,53.38
2018-07-30T09:46:03.777Z,53.38
2018-07-30T09:47:03.683Z,54.16
2018-07-30T09:48:03.537Z,54.94
2018-07-30T09:49:03.597Z,53.89
2018-07-30T09:50:04.058Z,55.16
2018-07-30T09:51:03.471Z,53.89
2018-07-30T09:52:03.566Z,53.80
2018-07-30T09:53:03.474Z,53.44
2018-07-30T09:54:03.533Z,53.14
2018-07-30T09:55:03.486Z,51.78
2018-07-30T09:56:03.491Z,51.07
2018-07-30T09:57:03.499Z,51.75
2018-07-30T09:58:03.506Z,51.56
2018-07-30T09:59:03.523Z,51.34
2018-07-30T10:00:03.529Z,51.95
2018-07-30T10:01:03.530Z,51.56
2018-07-30T10:02:03.528Z,51.58
2018-07-30T10:03:03.536Z,50.97
2018-07-30T10:04:03.547Z,50.58
2018-07-30T10:05:03.554Z,51.26
2018-07-30T10:06:03.563Z,50.90
2018-07-30T10:07:03.566Z,51.29
2018-07-30T10:08:03.575Z,50.02
2018-07-30T10:09:03.582Z,51.29
2018-07-30T10:10:03.608Z,50.31
2018-07-30T10:11:03.594Z,50.51
2018-07-30T10:12:03.602Z,50.41
2018-07-30T10:13:03.608Z,50.53
2018-07-30T10:14:03.651Z,51.41
2018-07-30T10:15:03.621Z,51.02
2018-07-30T10:16:03.627Z,50.14
2018-07-30T10:17:03.636Z,48.78
2018-07-30T10:18:03.684Z,47.19
2018-07-30T10:19:03.652Z,47.58
2018-07-30T10:20:03.703Z,47.39
2018-07-30T10:21:03.666Z,46.12
2018-07-30T10:22:03.760Z,47.09
2018-07-30T10:23:04.004Z,46.24
2018-07-30T10:24:03.992Z,46.51
2018-07-30T10:25:04.088Z,47.51
2018-07-30T10:26:03.698Z,47.51
2018-07-30T10:27:03.701Z,45.97
2018-07-30T10:28:03.711Z,47.05
2018-07-30T10:29:03.722Z,46.36
2018-07-30T10:30:03.726Z,46.95
2018-07-30T10:31:03.732Z,46.17
2018-07-30T10:32:03.740Z,45.00
2018-07-30T10:33:03.747Z,45.00
2018-07-30T10:34:03.752Z,45.97
2018-07-30T10:35:03.758Z,45.07
2018-07-30T10:36:03.771Z,47.22
2018-07-30T10:37:03.815Z,47.41
2018-07-30T10:38:03.855Z,46.73
2018-07-30T10:39:03.788Z,47.61
2018-07-30T10:40:03.796Z,46.14
2018-07-30T10:41:03.801Z,47.41
2018-07-30T10:42:03.808Z,47.41
2018-07-30T10:43:03.814Z,47.51
2018-07-30T10:44:03.835Z,47.73
2018-07-30T10:45:03.829Z,46.75
2018-07-30T10:46:03.834Z,44.41
2018-07-30T10:47:03.841Z,44.12
2018-07-30T10:48:03.849Z,42.46
2018-07-30T10:49:03.854Z,42.26
2018-07-30T10:50:03.863Z,43.32
2018-07-30T10:51:03.869Z,43.92
2018-07-30T10:52:03.879Z,45.29
2018-07-30T10:53:03.884Z,44.21
2018-07-30T10:54:03.925Z,43.53
2018-07-30T10:55:03.898Z,44.34
2018-07-30T10:56:03.909Z,41.99
2018-07-30T10:57:03.925Z,43.07
2018-07-30T10:58:03.919Z,40.33
2018-07-30T10:59:03.925Z,41.21
2018-07-30T11:00:03.931Z,42.11
2018-07-30T11:01:03.989Z,43.38
2018-07-30T11:02:03.948Z,42.48
2018-07-30T11:03:03.954Z,42.38
2018-07-30T11:04:03.963Z,40.92
2018-07-30T11:05:03.968Z,40.89
2018-07-30T11:06:03.977Z,40.53
2018-07-30T11:07:03.984Z,39.26
2018-07-30T11:08:03.989Z,40.23
2018-07-30T11:09:03.997Z,38.67
2018-07-30T11:10:04.009Z,38.20
2018-07-30T11:11:04.036Z,38.98
2018-07-30T11:12:04.018Z,38.57
2018-07-30T11:13:04.024Z,38.67
2018-07-30T11:14:04.035Z,40.53
2018-07-30T11:15:04.084Z,38.87
2018-07-30T11:16:04.046Z,38.77
2018-07-30T11:17:04.055Z,39.45
2018-07-30T11:18:04.061Z,39.14
2018-07-30T11:19:04.109Z,39.53
2018-07-30T11:20:04.102Z,40.33
2018-07-30T11:21:04.085Z,38.96
2018-07-30T11:22:04.232Z,38.69
2018-07-30T11:23:04.099Z,37.50
2018-07-30T11:24:04.103Z,37.79
2018-07-30T11:25:04.109Z,37.52
2018-07-30T11:26:04.117Z,36.83
2018-07-30T11:27:04.123Z,38.20
2018-07-30T11:28:04.245Z,38.30
2018-07-30T11:29:04.203Z,37.93
2018-07-30T11:30:04.146Z,39.20
2018-07-30T11:31:04.152Z,37.95
2018-07-30T11:32:04.160Z,36.24
2018-07-30T11:33:04.168Z,36.83
2018-07-30T11:34:04.176Z,36.83
2018-07-30T11:35:04.187Z,37.81
2018-07-30T11:36:04.188Z,37.22
2018-07-30T11:37:04.197Z,36.73
2018-07-30T11:38:04.204Z,38.01
2018-07-30T11:39:04.209Z,37.73
2018-07-30T11:40:04.217Z,38.71
2018-07-30T11:41:04.226Z,38.81
2018-07-30T11:42:04.233Z,37.83
2018-07-30T11:43:04.239Z,37.34
2018-07-30T11:44:04.246Z,38.81
2018-07-30T11:45:04.254Z,39.29
2018-07-30T11:46:04.260Z,39.29
2018-07-30T11:47:04.267Z,38.22
2018-07-30T11:48:04.277Z,38.43
2018-07-30T11:49:04.284Z,39.22
2018-07-30T11:50:04.385Z,36.67
2018-07-30T11:51:04.296Z,38.63
2018-07-30T11:52:04.305Z,37.26
2018-07-30T11:53:04.311Z,37.95
2018-07-30T11:54:04.374Z,37.43
2018-07-30T11:55:04.325Z,37.93
2018-07-30T11:56:04.371Z,39.20
2018-07-30T11:57:04.342Z,39.78
2018-07-30T11:58:04.359Z,39.49
2018-07-30T11:59:04.357Z,39.00
2018-07-30T12:00:04.364Z,39.29
2018-07-30T12:01:04.417Z,40.27
2018-07-30T12:02:04.398Z,39.39
2018-07-30T12:03:04.387Z,40.74
2018-07-30T12:04:04.394Z,40.66
2018-07-30T12:05:04.405Z,40.47
2018-07-30T12:06:04.412Z,40.76
2018-07-30T12:07:04.484Z,39.02
2018-07-30T12:08:04.427Z,40.39
2018-07-30T12:09:04.440Z,39.31
2018-07-30T12:10:04.460Z,38.94
2018-07-30T12:11:04.448Z,39.22
2018-07-30T12:12:04.457Z,39.43
2018-07-30T12:13:04.462Z,39.51
2018-07-30T12:14:04.554Z,38.73
2018-07-30T12:15:04.477Z,37.96
2018-07-30T12:16:04.504Z,38.45
2018-07-30T12:17:04.506Z,39.53
2018-07-30T12:18:04.500Z,37.95
2018-07-30T12:19:04.507Z,39.14
2018-07-30T12:20:04.515Z,36.88
2018-07-30T12:21:04.523Z,38.35
2018-07-30T12:22:04.532Z,36.98
2018-07-30T12:23:04.539Z,36.96
2018-07-30T12:24:04.586Z,37.18
2018-07-30T12:25:04.556Z,37.77
2018-07-30T12:26:04.564Z,37.77
2018-07-30T12:27:04.578Z,37.96
2018-07-30T12:28:04.577Z,38.55
2018-07-30T12:29:04.584Z,39.82
2018-07-30T12:30:04.636Z,39.43
2018-07-30T12:31:04.598Z,39.53
2018-07-30T12:32:04.623Z,39.43
2018-07-30T12:33:04.614Z,37.47
2018-07-30T12:34:04.666Z,37.96
2018-07-30T12:35:04.635Z,37.96
2018-07-30T12:36:04.652Z,37.75
2018-07-30T12:37:04.652Z,36.96
2018-07-30T12:38:04.688Z,36.75
2018-07-30T12:39:04.665Z,37.65
2018-07-30T12:40:04.670Z,37.55
2018-07-30T12:41:04.685Z,36.85
2018-07-30T12:42:04.688Z,35.38
2018-07-30T12:43:04.701Z,35.97
2018-07-30T12:44:04.701Z,35.60
2018-07-30T12:45:04.711Z,35.11
2018-07-30T12:46:04.713Z,36.08
2018-07-30T12:47:04.724Z,35.11
2018-07-30T12:48:04.777Z,36.00
2018-07-30T12:49:04.762Z,37.57
2018-07-30T12:50:04.746Z,38.34
2018-07-30T12:51:04.756Z,38.53
2018-07-30T12:52:04.761Z,38.63
2018-07-30T12:53:04.771Z,38.82